Time;durP1;ratioP1;P1;durP2;ratioP2;P2;SDS_P1;SDS_P2;PMS_P1;PMS_P2;Temp;Humidity;BMP_temperature;BMP_pressure;BME280_temperature;BME280_humidity;BME280_pressure;Samples;Min_cycle;Max_cycle;Signal;HPM_P1;HPM_P2
2022/03/15 00:00:52;;;;;;;;;;;;;;;22.25;37.52;96847.66;2064458;28;2042;-60
2022/03/15 00:01:54;;;;;;;;;;;;;;;22.31;37.53;96846.13;2064767;28;1619;-60
2022/03/15 00:02:57;;;;;;;;;;;;;;;22.22;37.90;96846.16;2065468;28;1142;-61
2022/03/15 00:03:58;;;;;;;;;;;;;;;22.20;37.77;96847.34;2061445;28;1749;-61
2022/03/15 00:05:01;;;;;;;;;;;;;;;22.22;37.88;96838.13;2064942;28;1117;-60
2022/03/15 00:06:02;;;;;;;;;;;;;;;22.19;37.83;96833.13;2065014;28;1038;-60
2022/03/15 00:07:04;;;;;;;;;;;;;;;22.34;37.53;96840.44;2063857;28;1718;-61
2022/03/15 00:08:06;;;;;;;;;;;;;;;22.39;37.45;96830.88;2065551;28;1727;-60
2022/03/15 00:09:07;;;;;;;;;;;;;;;22.45;37.35;96830.22;2063998;28;1682;-58
2022/03/15 00:10:11;;;;;;;;;;;;;;;22.42;37.27;96827.88;2057815;28;1906;-59
2022/03/15 00:11:12;;;;;;;;;;;;;;;22.45;37.20;96832.03;2061751;28;1696;-60
2022/03/15 00:12:14;;;;;;;;;;;;;;;22.45;37.05;96830.22;2064415;28;1695;-59
2022/03/15 00:13:16;;;;;;;;;;;;;;;22.51;37.18;96828.66;2064897;28;1716;-59
2022/03/15 00:14:19;;;;;;;;;;;;;;;22.50;37.26;96831.53;2062157;28;1590;-60
2022/03/15 00:15:20;;;;;;;;;;;;;;;22.46;37.41;96831.06;2052657;28;984;-60
2022/03/15 00:16:22;;;;;;;;;;;;;;;22.44;37.23;96833.06;2062180;28;1748;-59
2022/03/15 00:17:24;;;;;;;;;;;;;;;22.44;37.11;96833.88;2056885;28;1590;-59
2022/03/15 00:18:30;;;;;;;;;;;;;;;22.44;37.34;96841.09;2062126;28;1652;-58
2022/03/15 00:19:31;;;;;;;;;;;;;;;22.44;37.38;96833.06;2061033;28;1657;-60
2022/03/15 00:20:33;;;;;;;;;;;;;;;22.48;37.05;96836.22;2057625;28;1006;-59
2022/03/15 00:21:35;;;;;;;;;;;;;;;22.55;37.12;96835.34;2059045;28;1602;-59
2022/03/15 00:22:37;;;;;;;;;;;;;;;22.51;37.00;96836.69;2065337;28;1167;-61
2022/03/15 00:23:42;;;;;;;;;;;;;;;22.45;37.21;96835.56;2065099;28;1904;-59
2022/03/15 00:24:44;;;;;;;;;;;;;;;22.47;37.27;96838.06;2065099;28;1678;-60
2022/03/15 00:25:46;;;;;;;;;;;;;;;22.44;37.31;96838.41;2064886;28;1951;-60
2022/03/15 00:26:48;;;;;;;;;;;;;;;22.44;37.25;96843.75;2059634;28;1868;-61
2022/03/15 00:27:51;;;;;;;;;;;;;;;22.44;37.33;96838.41;2058349;28;1497;-59
2022/03/15 00:28:53;;;;;;;;;;;;;;;22.36;37.75;96839.25;2057221;28;1036;-59
2022/03/15 00:29:54;;;;;;;;;;;;;;;22.38;37.70;96839.09;2063806;28;1978;-59
2022/03/15 00:30:56;;;;;;;;;;;;;;;22.38;37.55;96839.09;2064547;28;2083;-60
2022/03/15 00:31:57;;;;;;;;;;;;;;;22.32;37.89;96839.78;2064703;28;1635;-59
2022/03/15 00:32:59;;;;;;;;;;;;;;;22.39;37.56;96835.41;2061774;28;1904;-60
2022/03/15 00:34:01;;;;;;;;;;;;;;;22.40;37.54;96837.09;2064970;28;1614;-59
2022/03/15 00:35:05;;;;;;;;;;;;;;;22.39;37.75;96843.44;2065483;28;1038;-59
2022/03/15 00:36:07;;;;;;;;;;;;;;;22.36;37.69;96841.09;2064869;28;1663;-58
2022/03/15 00:37:09;;;;;;;;;;;;;;;22.36;37.92;96836.59;2060421;28;1950;-58
2022/03/15 00:38:10;;;;;;;;;;;;;;;22.36;37.73;96838.44;2064905;28;1412;-59
2022/03/15 00:39:12;;;;;;;;;;;;;;;22.36;37.90;96836.59;2064843;28;1898;-57
2022/03/15 00:40:15;;;;;;;;;;;;;;;22.41;37.69;96826.22;2065399;28;1065;-58
2022/03/15 00:41:17;;;;;;;;;;;;;;;22.35;37.61;96829.59;2065001;28;1651;-59
2022/03/15 00:42:18;;;;;;;;;;;;;;;22.40;37.67;96829.91;2064376;28;1824;-58
2022/03/15 00:43:20;;;;;;;;;;;;;;;22.45;37.44;96821.34;2064680;28;1940;-59
2022/03/15 00:44:22;;;;;;;;;;;;;;;22.32;37.79;96834.44;2063883;28;1347;-59
2022/03/15 00:45:23;;;;;;;;;;;;;;;22.33;37.83;96830.75;2063815;28;1809;-57
2022/03/15 00:46:25;;;;;;;;;;;;;;;22.30;37.57;96831.94;2064753;28;1840;-60
2022/03/15 00:47:27;;;;;;;;;;;;;;;22.34;37.79;96833.28;2058773;28;1766;-60
2022/03/15 00:48:29;;;;;;;;;;;;;;;22.28;37.82;96831.25;2058334;28;1802;-58
2022/03/15 00:49:30;;;;;;;;;;;;;;;22.21;37.89;96832.97;2064848;28;1989;-60
2022/03/15 00:50:36;;;;;;;;;;;;;;;22.20;38.09;96831.31;2065094;28;1902;-58
2022/03/15 00:51:38;;;;;;;;;;;;;;;22.31;37.74;96830.91;2062115;28;1672;-60
2022/03/15 00:52:40;;;;;;;;;;;;;;;22.33;37.73;96831.59;2065293;28;1006;-58
2022/03/15 00:53:42;;;;;;;;;;;;;;;22.37;37.66;96832.06;2062104;28;1666;-58
2022/03/15 00:54:43;;;;;;;;;;;;;;;22.34;37.83;96819.91;2060225;28;1677;-60
2022/03/15 00:55:45;;;;;;;;;;;;;;;22.37;37.77;96818.69;2064865;28;1096;-60
2022/03/15 00:56:47;;;;;;;;;;;;;;;22.43;37.53;96818.03;2062726;28;1650;-59
2022/03/15 00:57:49;;;;;;;;;;;;;;;22.34;37.44;96816.38;2064588;28;1859;-60
2022/03/15 00:58:50;;;;;;;;;;;;;;;22.38;37.60;96818.53;2064820;28;1990;-59
2022/03/15 00:59:52;;;;;;;;;;;;;;;22.40;37.48;96821.88;2059444;28;1779;-61
2022/03/15 01:00:54;;;;;;;;;;;;;;;22.37;37.57;96819.56;2056257;28;1893;-59
2022/03/15 01:01:56;;;;;;;;;;;;;;;22.33;37.80;96823.56;2064271;28;1879;-60
2022/03/15 01:02:58;;;;;;;;;;;;;;;22.28;37.75;96809.88;2065058;28;1691;-60
2022/03/15 01:04:00;;;;;;;;;;;;;;;22.29;37.86;96808.06;2065243;28;1116;-59
2022/03/15 01:05:03;;;;;;;;;;;;;;;22.35;37.56;96808.19;2064387;28;1176;-61
2022/03/15 01:06:05;;;;;;;;;;;;;;;22.34;37.57;96809.22;2063419;28;1777;-63
2022/03/15 01:07:07;;;;;;;;;;;;;;;22.28;37.74;96799.19;2061696;28;1241;-60
2022/03/15 01:08:08;;;;;;;;;;;;;;;22.29;37.71;96797.34;2064708;28;1595;-61
2022/03/15 01:09:10;;;;;;;;;;;;;;;22.28;37.68;96806.38;2064612;28;1669;-61
2022/03/15 01:10:12;;;;;;;;;;;;;;;22.20;37.75;96805.41;2059594;28;1683;-60
2022/03/15 01:11:13;;;;;;;;;;;;;;;22.31;37.81;96798.00;2056732;28;1986;-60
2022/03/15 01:12:15;;;;;;;;;;;;;;;22.23;37.91;96797.03;2062947;28;1779;-60
2022/03/15 01:13:17;;;;;;;;;;;;;;;22.32;37.75;96794.34;2064579;28;2071;-60
2022/03/15 01:14:18;;;;;;;;;;;;;;;22.28;37.74;96793.81;2062264;28;1740;-59
2022/03/15 01:15:21;;;;;;;;;;;;;;;22.26;37.94;96797.72;2056045;28;1143;-59
2022/03/15 01:16:23;;;;;;;;;;;;;;;22.27;37.78;96794.84;2060842;28;1605;-59
2022/03/15 01:17:24;;;;;;;;;;;;;;;22.19;37.96;96795.69;2065027;28;1696;-59
2022/03/15 01:18:26;;;;;;;;;;;;;;;22.30;37.82;96796.34;2072580;28;1007;-59
2022/03/15 01:19:28;;;;;;;;;;;;;;;22.28;37.81;96798.34;2064263;28;1928;-60
2022/03/15 01:20:30;;;;;;;;;;;;;;;22.23;38.03;96799.72;2064356;28;1167;-59
2022/03/15 01:21:35;;;;;;;;;;;;;;;22.18;37.99;96798.56;2058038;28;1697;-59
2022/03/15 01:22:37;;;;;;;;;;;;;;;22.20;38.17;96800.06;2060184;28;1602;-60
2022/03/15 01:23:38;;;;;;;;;;;;;;;22.19;38.04;96803.72;2057047;28;1074;-60
2022/03/15 01:24:40;;;;;;;;;;;;;;;22.15;38.11;96805.06;2061234;28;2035;-59
2022/03/15 01:25:42;;;;;;;;;;;;;;;22.12;38.10;96808.06;2063363;28;1760;-58
2022/03/15 01:26:43;;;;;;;;;;;;;;;22.14;38.09;96808.75;2059322;28;1794;-59
2022/03/15 01:27:45;;;;;;;;;;;;;;;22.12;38.02;96810.75;2061535;28;1729;-60
2022/03/15 01:28:46;;;;;;;;;;;;;;;22.19;37.80;96809.06;2056945;28;1764;-59
2022/03/15 01:29:48;;;;;;;;;;;;;;;22.20;37.88;96807.25;2064179;28;1853;-59
2022/03/15 01:30:50;;;;;;;;;;;;;;;22.17;37.90;96799.50;2064629;28;1989;-60
2022/03/15 01:31:53;;;;;;;;;;;;;;;22.14;38.25;96800.72;2064556;28;1630;-60
2022/03/15 01:32:55;;;;;;;;;;;;;;;22.19;38.03;96798.38;2057149;28;1581;-59
2022/03/15 01:33:57;;;;;;;;;;;;;;;22.18;38.03;96799.38;2064628;28;1552;-59
2022/03/15 01:34:58;;;;;;;;;;;;;;;22.16;38.17;96798.69;2064985;28;1159;-59
2022/03/15 01:36:00;;;;;;;;;;;;;;;22.14;38.13;96800.72;2063078;28;1830;-59
2022/03/15 01:37:02;;;;;;;;;;;;;;;22.16;37.95;96806.72;2060544;28;1772;-60
2022/03/15 01:38:03;;;;;;;;;;;;;;;22.20;38.15;96807.25;2064006;28;1746;-59
2022/03/15 01:39:06;;;;;;;;;;;;;;;22.22;37.95;96803.38;2061696;28;1803;-60
2022/03/15 01:40:07;;;;;;;;;;;;;;;22.24;38.08;96808.56;2064846;28;1670;-60
2022/03/15 01:41:09;;;;;;;;;;;;;;;22.20;37.92;96805.41;2064676;28;1699;-60
2022/03/15 01:42:11;;;;;;;;;;;;;;;22.20;38.12;96812.59;2064033;28;1638;-60
2022/03/15 01:43:13;;;;;;;;;;;;;;;22.24;37.91;96805.88;2059479;28;1697;-60
2022/03/15 01:44:16;;;;;;;;;;;;;;;22.21;38.10;96811.59;2063566;28;1747;-59
2022/03/15 01:45:17;;;;;;;;;;;;;;;22.30;38.08;96813.22;2056323;28;1072;-60
2022/03/15 01:46:19;;;;;;;;;;;;;;;22.39;37.87;96804.16;2056260;28;1010;-59
2022/03/15 01:47:21;;;;;;;;;;;;;;;22.32;37.90;96807.72;2064440;28;1844;-59
2022/03/15 01:48:23;;;;;;;;;;;;;;;22.24;38.13;96805.88;2064576;28;1170;-59
2022/03/15 01:49:24;;;;;;;;;;;;;;;22.28;38.02;96806.38;2060038;28;1651;-60
2022/03/15 01:50:27;;;;;;;;;;;;;;;22.20;38.46;96810.75;2056602;28;1033;-59
2022/03/15 01:51:29;;;;;;;;;;;;;;;22.31;38.08;96809.53;2057328;28;1914;-63
2022/03/15 01:52:30;;;;;;;;;;;;;;;22.32;38.05;96816.56;2063772;28;1593;-60
2022/03/15 01:53:32;;;;;;;;;;;;;;;22.35;38.17;96818.06;2064919;28;1087;-61
2022/03/15 01:54:34;;;;;;;;;;;;;;;22.30;38.13;96815.06;2059814;28;1683;-61
2022/03/15 01:55:35;;;;;;;;;;;;;;;22.30;38.53;96825.75;2064386;28;1690;-61
2022/03/15 01:56:41;;;;;;;;;;;;;;;22.40;38.13;96827.22;2059414;28;1789;-60
2022/03/15 01:57:43;;;;;;;;;;;;;;;22.40;38.10;96826.41;2058176;28;1794;-60
2022/03/15 01:58:45;;;;;;;;;;;;;;;22.35;38.20;96834.09;2063529;28;1754;-60
2022/03/15 01:59:47;;;;;;;;;;;;;;;22.29;38.34;96827.59;2064425;28;1749;-58
2022/03/15 02:00:49;;;;;;;;;;;;;;;22.31;38.68;96838.09;2064830;28;1745;-60
2022/03/15 02:01:50;;;;;;;;;;;;;;;22.37;38.42;96834.75;2071921;28;1792;-61
2022/03/15 02:02:53;;;;;;;;;;;;;;;22.40;38.15;96829.06;2071270;28;1723;-60
2022/03/15 02:03:55;;;;;;;;;;;;;;;22.39;38.54;96832.75;2064929;28;1103;-62
2022/03/15 02:04:57;;;;;;;;;;;;;;;22.38;38.46;96828.41;2064945;28;994;-60
2022/03/15 02:06:01;;;;;;;;;;;;;;;22.39;38.50;96835.41;2059105;28;1707;-58
2022/03/15 02:07:04;;;;;;;;;;;;;;;22.44;38.22;96833.06;2063822;28;1217;-60
2022/03/15 02:08:10;;;;;;;;;;;;;;;22.48;38.12;96833.53;2063507;28;1869;-61
2022/03/15 02:09:12;;;;;;;;;;;;;;;22.42;38.23;96829.72;2061069;28;1855;-60
2022/03/15 02:10:14;;;;;;;;;;;;;;;22.44;38.23;96825.03;2062843;28;1670;-59
2022/03/15 02:11:17;;;;;;;;;;;;;;;22.43;38.36;96818.84;2065845;28;2079;-59
2022/03/15 02:12:18;;;;;;;;;;;;;;;22.44;38.36;96823.19;2065141;28;1801;-59
2022/03/15 02:13:20;;;;;;;;;;;;;;;22.44;38.37;96820.53;2066118;28;1039;-59
2022/03/15 02:14:21;;;;;;;;;;;;;;;22.31;38.79;96812.19;2066456;28;1090;-60
2022/03/15 02:15:23;;;;;;;;;;;;;;;22.33;38.79;96818.22;2066458;28;1109;-59
2022/03/15 02:16:25;;;;;;;;;;;;;;;22.30;38.71;96817.72;2061436;28;1698;-59
2022/03/15 02:17:27;;;;;;;;;;;;;;;22.29;38.72;96816.91;2064634;28;1803;-61
2022/03/15 02:18:29;;;;;;;;;;;;;;;22.33;38.44;96820.88;2066111;28;1778;-58
2022/03/15 02:19:30;;;;;;;;;;;;;;;22.29;38.70;96827.59;2066218;28;1155;-60
2022/03/15 02:20:32;;;;;;;;;;;;;;;22.30;38.68;96829.25;2065936;28;1214;-61
2022/03/15 02:21:36;;;;;;;;;;;;;;;22.30;38.76;96823.09;2064267;28;2058;-61
2022/03/15 02:22:38;;;;;;;;;;;;;;;22.32;38.77;96829.09;2066341;28;1155;-61
2022/03/15 02:23:39;;;;;;;;;;;;;;;22.34;38.50;96827.06;2065815;28;1721;-59
2022/03/15 02:24:42;;;;;;;;;;;;;;;22.33;38.66;96830.75;2066398;28;1043;-59
2022/03/15 02:25:44;;;;;;;;;;;;;;;22.36;38.51;96833.09;2066343;28;1119;-60
2022/03/15 02:26:46;;;;;;;;;;;;;;;22.37;38.39;96818.69;2065793;28;1544;-59
2022/03/15 02:27:47;;;;;;;;;;;;;;;22.37;38.58;96814.22;2059499;28;1374;-60
2022/03/15 02:28:49;;;;;;;;;;;;;;;22.31;38.53;96811.38;2065954;28;1689;-58
2022/03/15 02:29:51;;;;;;;;;;;;;;;22.37;38.67;96810.66;2066185;28;1157;-59
2022/03/15 02:30:54;;;;;;;;;;;;;;;22.26;38.68;96800.38;2066311;28;1586;-59
2022/03/15 02:31:56;;;;;;;;;;;;;;;22.31;38.57;96800.69;2065859;28;1902;-61
2022/03/15 02:32:58;;;;;;;;;;;;;;;22.24;38.75;96797.88;2065586;28;963;-59
2022/03/15 02:33:59;;;;;;;;;;;;;;;22.15;38.81;96786.34;2065928;28;1076;-59
2022/03/15 02:35:02;;;;;;;;;;;;;;;22.19;38.96;96785.00;2069231;28;1765;-61
2022/03/15 02:36:04;;;;;;;;;;;;;;;22.26;38.65;96800.38;2058168;28;1138;-59
2022/03/15 02:37:06;;;;;;;;;;;;;;;22.32;38.64;96792.50;2058048;28;1849;-57
2022/03/15 02:38:07;;;;;;;;;;;;;;;22.34;38.80;96794.97;2055889;28;1101;-57
2022/03/15 02:39:09;;;;;;;;;;;;;;;22.36;38.67;96791.13;2056461;28;1687;-57
2022/03/15 02:40:11;;;;;;;;;;;;;;;22.30;38.79;96791.00;2058176;28;1051;-58
2022/03/15 02:41:13;;;;;;;;;;;;;;;22.36;38.75;96787.63;2058096;28;1498;-58
2022/03/15 02:42:15;;;;;;;;;;;;;;;22.34;38.56;96790.50;2064266;28;1681;-60
2022/03/15 02:43:16;;;;;;;;;;;;;;;22.33;38.74;96785.31;2065925;28;1697;-60
2022/03/15 02:44:18;;;;;;;;;;;;;;;22.40;38.73;96784.44;2065323;28;1708;-59
2022/03/15 02:45:20;;;;;;;;;;;;;;;22.40;38.62;96781.78;2066067;28;1152;-58
2022/03/15 02:46:22;;;;;;;;;;;;;;;22.36;38.71;96788.44;2065927;28;1491;-60
2022/03/15 02:47:23;;;;;;;;;;;;;;;22.33;38.67;96787.97;2057932;28;1011;-59
2022/03/15 02:48:25;;;;;;;;;;;;;;;22.41;38.41;96782.59;2058140;28;1069;-59
2022/03/15 02:49:27;;;;;;;;;;;;;;;22.42;38.43;96785.09;2054999;28;1665;-58
2022/03/15 02:50:29;;;;;;;;;;;;;;;22.48;38.60;96780.88;2065705;28;1201;-60
2022/03/15 02:51:31;;;;;;;;;;;;;;;22.36;38.75;96790.31;2065151;28;1914;-62
2022/03/15 02:52:33;;;;;;;;;;;;;;;22.35;39.07;96796.66;2066137;28;1117;-61
2022/03/15 02:53:36;;;;;;;;;;;;;;;22.36;38.91;96795.66;2066130;28;1839;-60
2022/03/15 02:54:40;;;;;;;;;;;;;;;22.36;38.71;96792.97;2064549;28;1634;-60
2022/03/15 02:55:42;;;;;;;;;;;;;;;22.38;38.63;96788.28;2065513;28;1693;-63
2022/03/15 02:56:47;;;;;;;;;;;;;;;22.42;38.56;96792.28;2065540;28;1722;-60
2022/03/15 02:57:49;;;;;;;;;;;;;;;22.39;38.65;96795.31;2065251;28;1769;-60
2022/03/15 02:58:50;;;;;;;;;;;;;;;22.36;38.99;96788.44;2064248;28;1657;-61
2022/03/15 02:59:53;;;;;;;;;;;;;;;22.34;38.71;96785.13;2058880;28;1766;-65
2022/03/15 03:00:55;;;;;;;;;;;;;;;22.34;38.72;96784.28;2060998;28;1709;-61
2022/03/15 03:01:57;;;;;;;;;;;;;;;22.38;38.76;96791.78;2065573;28;1874;-60
2022/03/15 03:02:59;;;;;;;;;;;;;;;22.39;38.72;96793.44;2065230;28;1768;-61
2022/03/15 03:04:01;;;;;;;;;;;;;;;22.44;38.61;96795.63;2065648;28;2042;-59
2022/03/15 03:05:03;;;;;;;;;;;;;;;22.47;38.32;96789.09;2065673;28;1112;-60
2022/03/15 03:06:04;;;;;;;;;;;;;;;22.39;38.47;96787.28;2065234;28;1648;-59
2022/03/15 03:07:06;;;;;;;;;;;;;;;22.37;38.69;96792.81;2066057;28;1720;-60
2022/03/15 03:08:08;;;;;;;;;;;;;;;22.40;38.63;96792.47;2065657;28;1774;-61
2022/03/15 03:09:11;;;;;;;;;;;;;;;22.38;38.76;96788.28;2066436;28;1073;-60
2022/03/15 03:10:16;;;;;;;;;;;;;;;22.37;38.92;96783.94;2064032;28;1860;-64
2022/03/15 03:11:17;;;;;;;;;;;;;;;22.41;38.55;96786.09;2052693;28;1167;-62
2022/03/15 03:12:19;;;;;;;;;;;;;;;22.48;38.44;96786.22;2060565;28;2309;-62
2022/03/15 03:13:27;;;;;;;;;;;;;;;22.47;38.51;96792.59;2057227;28;1052;-62
2022/03/15 03:14:29;;;;;;;;;;;;;;;22.43;38.74;96784.09;2060456;28;1631;-62
2022/03/15 03:15:32;;;;;;;;;;;;;;;22.43;38.66;96789.44;2065803;28;1076;-61
2022/03/15 03:16:34;;;;;;;;;;;;;;;22.37;38.63;96789.28;2063415;28;1760;-61
2022/03/15 03:17:40;;;;;;;;;;;;;;;22.33;38.90;96785.31;2062520;28;1775;-60
2022/03/15 03:18:42;;;;;;;;;;;;;;;22.38;38.81;96790.97;2065229;28;1538;-63
2022/03/15 03:19:44;;;;;;;;;;;;;;;22.41;38.54;96786.09;2064546;28;1205;-60
2022/03/15 03:20:46;;;;;;;;;;;;;;;22.41;38.50;96780.75;2063790;28;1669;-61
2022/03/15 03:21:50;;;;;;;;;;;;;;;22.35;38.84;96785.97;2061663;28;1701;-62
2022/03/15 03:22:53;;;;;;;;;;;;;;;22.31;38.95;96787.31;2060551;28;1056;-59
2022/03/15 03:23:56;;;;;;;;;;;;;;;22.32;38.68;96783.66;2064157;28;1721;-60
2022/03/15 03:24:58;;;;;;;;;;;;;;;22.35;38.63;96776.09;2057246;28;1155;-60
2022/03/15 03:26:00;;;;;;;;;;;;;;;22.39;38.77;96784.59;2058922;28;1786;-64
2022/03/15 03:27:01;;;;;;;;;;;;;;;22.40;38.53;96778.25;2061751;28;1541;-60
2022/03/15 03:28:06;;;;;;;;;;;;;;;22.45;38.47;96774.06;2064939;28;1112;-60
2022/03/15 03:29:11;;;;;;;;;;;;;;;22.37;38.58;96775.91;2064675;28;2338;-60
2022/03/15 03:30:13;;;;;;;;;;;;;;;22.37;38.59;96775.91;2065582;28;1711;-60
2022/03/15 03:31:16;;;;;;;;;;;;;;;22.45;38.60;96776.75;2065348;28;2030;-61
2022/03/15 03:32:18;;;;;;;;;;;;;;;22.45;38.61;96770.53;2063838;28;2008;-59
2022/03/15 03:33:20;;;;;;;;;;;;;;;22.39;38.74;96771.22;2057318;28;1700;-60
2022/03/15 03:34:21;;;;;;;;;;;;;;;22.38;38.77;96767.72;2061810;28;1727;-60
2022/03/15 03:35:25;;;;;;;;;;;;;;;22.36;38.93;96763.56;2062698;28;1729;-60
2022/03/15 03:36:27;;;;;;;;;;;;;;;22.36;38.85;96760.88;2062831;28;1709;-61
2022/03/15 03:37:48;;;;;;;;;;;;;;;22.38;38.88;96762.38;2065477;28;1608;-61
2022/03/15 03:38:50;;;;;;;;;;;;;;;22.37;38.67;96767.88;2065412;28;1779;-61
2022/03/15 03:39:52;;;;;;;;;;;;;;;22.33;38.84;96766.59;2065642;28;1582;-60
2022/03/15 03:40:54;;;;;;;;;;;;;;;22.33;38.86;96769.25;2061794;28;1755;-61
2022/03/15 03:41:56;;;;;;;;;;;;;;;22.37;38.92;96768.75;2061028;28;1763;-62
2022/03/15 03:42:58;;;;;;;;;;;;;;;22.38;38.92;96766.91;2065674;28;1546;-61
2022/03/15 03:44:00;;;;;;;;;;;;;;;22.33;38.96;96767.41;2065321;28;1568;-62
2022/03/15 03:45:02;;;;;;;;;;;;;;;22.33;39.23;96771.94;2055388;28;1711;-61
2022/03/15 03:46:03;;;;;;;;;;;;;;;22.30;39.18;96775.78;2056996;28;1974;-61
2022/03/15 03:47:06;;;;;;;;;;;;;;;22.32;39.18;96773.78;2057701;28;1724;-62
2022/03/15 03:48:07;;;;;;;;;;;;;;;22.38;39.07;96781.09;2057748;28;1018;-61
2022/03/15 03:49:09;;;;;;;;;;;;;;;22.37;38.98;96767.88;2062715;28;1809;-58
2022/03/15 03:50:11;;;;;;;;;;;;;;;22.48;38.88;96764.81;2060345;28;1640;-60
2022/03/15 03:51:13;;;;;;;;;;;;;;;;;;2058632;28;2114;-59
2022/03/15 03:52:15;;;;;;;;;;;;;;;;;;2063587;28;1918;-61
2022/03/15 03:53:17;;;;;;;;;;;;;;;;;;2065652;28;1160;-59
2022/03/15 03:54:18;;;;;;;;;;;;;;;22.62;38.48;96772.09;2065252;28;1750;-59
2022/03/15 03:55:20;;;;;;;;;;;;;;;22.57;38.72;96776.31;2061133;28;1781;-59
2022/03/15 03:56:22;;;;;;;;;;;;;;;22.59;38.47;96777.81;2072306;28;1719;-60
2022/03/15 03:57:23;;;;;;;;;;;;;;;22.60;38.60;96779.50;2072771;28;1100;-60
2022/03/15 03:58:25;;;;;;;;;;;;;;;22.53;38.66;96780.38;2065531;28;1756;-59
2022/03/15 03:59:27;;;;;;;;;;;;;;;22.57;38.74;96787.03;2065445;28;1194;-60
2022/03/15 04:00:29;;;;;;;;;;;;;;;22.52;38.70;96797.44;2064857;28;1726;-60
2022/03/15 04:01:31;;;;;;;;;;;;;;;22.63;38.67;96797.88;2065606;28;1104;-60
2022/03/15 04:02:33;;;;;;;;;;;;;;;22.63;38.97;96799.72;2065326;28;1754;-60
2022/03/15 04:03:35;;;;;;;;;;;;;;;19.78;23.56;96804.56;2065083;28;1091;-59
2022/03/15 04:04:37;;;;;;;;;;;;;;;15.12;26.58;96805.91;2065822;28;1080;-58
2022/03/15 04:05:40;;;;;;;;;;;;;;;12.79;27.53;96798.53;2065162;28;1782;-60
2022/03/15 04:06:41;;;;;;;;;;;;;;;11.30;29.79;96816.03;2060332;28;1736;-58
2022/03/15 04:07:43;;;;;;;;;;;;;;;10.45;31.45;96820.72;2064245;28;1814;-59
2022/03/15 04:08:46;;;;;;;;;;;;;;;9.83;31.18;96828.06;2057415;28;1077;-59
2022/03/15 04:09:48;;;;;;;;;;;;;;;9.33;31.91;96832.78;2063953;28;1642;-58
2022/03/15 04:10:50;;;;;;;;;;;;;;;9.43;32.09;96827.88;2063240;28;1661;-57
2022/03/15 04:11:52;;;;;;;;;;;;;;;9.18;33.21;96826.69;2060913;28;1697;-58
2022/03/15 04:12:55;;;;;;;;;;;;;;;8.87;33.07;96830.25;2065722;28;1907;-60
2022/03/15 04:13:59;;;;;;;;;;;;;;;9.00;32.45;96827.78;2065390;28;1735;-59
2022/03/15 04:15:00;;;;;;;;;;;;;;;8.71;32.24;96821.59;2057891;28;1017;-58
2022/03/15 04:16:02;;;;;;;;;;;;;;;9.00;32.38;96833.84;2057391;28;1494;-58
2022/03/15 04:17:06;;;;;;;;;;;;;;;8.59;32.54;96836.19;2062689;28;1776;-57
2022/03/15 04:18:08;;;;;;;;;;;;;;;8.41;32.26;96834.63;2055648;28;1825;-57
2022/03/15 04:19:09;;;;;;;;;;;;;;;8.04;33.00;96834.81;2058170;28;1625;-58
2022/03/15 04:20:11;;;;;;;;;;;;;;;7.95;33.28;96837.94;2061526;28;1532;-58
2022/03/15 04:21:13;;;;;;;;;;;;;;;7.78;32.80;96841.44;2065199;28;1735;-57
2022/03/15 04:22:15;;;;;;;;;;;;;;;7.61;33.06;96836.25;2064939;28;1502;-56
2022/03/15 04:23:17;;;;;;;;;;;;;;;7.55;33.94;96837.44;2065541;28;1069;-56
2022/03/15 04:24:18;;;;;;;;;;;;;;;7.67;33.89;96841.16;2064976;28;1709;-57
2022/03/15 04:25:20;;;;;;;;;;;;;;;7.65;33.52;96837.78;2065292;28;1084;-56
2022/03/15 04:26:22;;;;;;;;;;;;;;;7.65;33.42;96843.84;2064852;28;965;-57
2022/03/15 04:27:24;;;;;;;;;;;;;;;7.64;33.35;96843.94;2063049;28;1716;-57
2022/03/15 04:28:26;;;;;;;;;;;;;;;7.57;33.27;96845.16;2054739;28;1644;-58
2022/03/15 04:29:28;;;;;;;;;;;;;;;7.47;33.48;96844.81;2056643;28;1108;-57
2022/03/15 04:30:31;;;;;;;;;;;;;;;7.48;33.22;96850.88;2053652;28;2134;-57
2022/03/15 04:31:33;;;;;;;;;;;;;;;7.48;33.11;96853.47;2050258;28;1593;-55
2022/03/15 04:32:34;;;;;;;;;;;;;;;7.42;33.58;96846.81;2062480;28;1986;-56
2022/03/15 04:33:36;;;;;;;;;;;;;;;7.58;33.45;96849.47;2058506;28;1677;-58
2022/03/15 04:34:38;;;;;;;;;;;;;;;7.57;33.31;96846.03;2064122;28;1697;-56
2022/03/15 04:35:39;;;;;;;;;;;;;;;7.72;32.99;96854.84;2064243;28;1814;-56
2022/03/15 04:36:41;;;;;;;;;;;;;;;7.58;32.98;96846.88;2064793;28;2029;-56
2022/03/15 04:37:42;;;;;;;;;;;;;;;7.84;32.50;96854.19;2065281;28;1022;-56
2022/03/15 04:38:44;;;;;;;;;;;;;;;7.91;32.54;96853.84;2064492;28;1637;-57
2022/03/15 04:39:46;;;;;;;;;;;;;;;7.73;32.33;96848.69;2060372;28;1342;-57
2022/03/15 04:40:48;;;;;;;;;;;;;;;7.81;32.22;96854.34;2064416;28;1636;-57
2022/03/15 04:41:50;;;;;;;;;;;;;;;7.61;32.39;96851.94;2063743;28;1731;-57
2022/03/15 04:42:54;;;;;;;;;;;;;;;7.66;32.00;96850.78;2065308;28;1078;-56
2022/03/15 04:43:56;;;;;;;;;;;;;;;7.73;32.21;96848.69;2062054;28;1470;-57
2022/03/15 04:44:58;;;;;;;;;;;;;;;7.66;32.03;96852.53;2065068;28;1051;-57
2022/03/15 04:46:00;;;;;;;;;;;;;;;7.50;32.53;96854.25;2065025;28;1019;-58
2022/03/15 04:47:07;;;;;;;;;;;;;;;8.46;31.57;96854.34;2063387;28;1651;-60
2022/03/15 04:48:09;;;;;;;;;;;;;;;8.13;31.50;96853.56;2064027;28;1052;-57
2022/03/15 04:49:10;;;;;;;;;;;;;;;7.77;31.98;96859.78;2064325;28;1701;-58
2022/03/15 04:50:12;;;;;;;;;;;;;;;9.15;32.78;96865.31;2064993;28;1017;-61
2022/03/15 04:51:14;;;;;;;;;;;;;;;9.19;29.94;96857.19;2059814;28;1742;-61
2022/03/15 04:52:20;;;;;;;;;;;;;;;9.38;30.61;96845.63;2063263;28;1625;-60
2022/03/15 04:53:21;;;;;;;;;;;;;;;10.80;30.37;96851.72;2057192;28;2001;-59
2022/03/15 04:54:23;;;;;;;;;;;;;;;12.01;29.33;96848.88;2060882;28;1734;-63
2022/03/15 04:55:24;;;;;;;;;;;;;;;13.02;28.40;96852.13;2063398;28;1628;-60
2022/03/15 04:56:26;;;;;;;;;;;;;;;13.84;27.90;96848.69;2059567;28;1355;-60
2022/03/15 04:57:28;;;;;;;;;;;;;;;14.50;27.18;96844.34;2057444;28;1819;-60
2022/03/15 04:58:29;;;;;;;;;;;;;;;15.03;26.35;96849.78;2062388;28;1731;-58
2022/03/15 04:59:31;;;;;;;;;;;;;;;15.62;26.45;96844.94;2061094;28;1545;-60
2022/03/15 05:00:33;;;;;;;;;;;;;;;16.11;26.42;96835.50;2061547;28;1562;-59
2022/03/15 05:01:34;;;;;;;;;;;;;;;16.49;26.48;96840.09;2059899;28;1767;-59
2022/03/15 05:02:39;;;;;;;;;;;;;;;16.17;23.88;96845.56;2064220;28;1782;-60
2022/03/15 05:03:41;;;;;;;;;;;;;;;13.81;25.54;96838.38;2064247;28;1793;-59
2022/03/15 05:04:43;;;;;;;;;;;;;;;14.18;26.84;96837.19;2064202;28;1724;-61
2022/03/15 05:05:45;;;;;;;;;;;;;;;14.82;27.39;96840.94;2063329;28;1474;-59
2022/03/15 05:06:46;;;;;;;;;;;;;;;15.57;27.31;96836.53;2056373;28;1371;-59
2022/03/15 05:07:48;;;;;;;;;;;;;;;16.14;27.17;96840.53;2064529;28;1750;-58
2022/03/15 05:08:49;;;;;;;;;;;;;;;16.54;27.25;96832.56;2065040;28;978;-59
2022/03/15 05:11:14;;;;;;;;;;;;;;;17.20;26.82;96839.13;2064239;28;1606;-58
2022/03/15 05:12:16;;;;;;;;;;;;;;;17.39;26.66;96832.94;2064244;28;1704;-59
2022/03/15 05:13:20;;;;;;;;;;;;;;;17.58;26.43;96835.59;2059461;28;1922;-59
2022/03/15 05:14:22;;;;;;;;;;;;;;;17.63;26.56;96836.00;2056584;28;1116;-59
2022/03/15 05:15:23;;;;;;;;;;;;;;;17.68;26.83;96844.38;2061133;28;1724;-57
2022/03/15 05:16:25;;;;;;;;;;;;;;;17.77;26.75;96835.56;2057182;28;1637;-58
2022/03/15 05:17:27;;;;;;;;;;;;;;;17.88;26.59;96837.25;2064928;28;1856;-60
2022/03/15 05:18:28;;;;;;;;;;;;;;;17.97;26.69;96848.81;2061818;28;1658;-58
2022/03/15 05:19:30;;;;;;;;;;;;;;;18.00;26.79;96848.53;2064823;28;1105;-58
2022/03/15 05:20:32;;;;;;;;;;;;;;;18.03;26.82;96842.94;2064741;28;1702;-59
2022/03/15 05:21:33;;;;;;;;;;;;;;;18.08;26.78;96851.31;2065005;28;1012;-58
2022/03/15 05:22:35;;;;;;;;;;;;;;;18.17;26.82;96853.09;2064524;28;1661;-59
2022/03/15 05:23:37;;;;;;;;;;;;;;;18.28;26.74;96856.56;2058723;28;1642;-58
2022/03/15 05:24:38;;;;;;;;;;;;;;;18.30;27.03;96849.25;2062569;28;1480;-59
2022/03/15 05:25:40;;;;;;;;;;;;;;;18.32;27.06;96852.59;2061674;28;1692;-59
2022/03/15 05:26:42;;;;;;;;;;;;;;;18.36;27.17;96846.88;2056527;28;1185;-59
2022/03/15 05:27:44;;;;;;;;;;;;;;;18.43;26.81;96849.75;2056648;28;1108;-59
2022/03/15 05:28:46;;;;;;;;;;;;;;;18.45;27.05;96853.13;2056250;28;1089;-59
2022/03/15 05:29:47;;;;;;;;;;;;;;;18.47;27.02;96835.22;2056789;28;1128;-59
2022/03/15 05:30:49;;;;;;;;;;;;;;;18.54;27.31;96848.75;2056785;28;1013;-59